createdAt,value
2018-05-08T00:02:21.224Z,1.00
2018-05-08T00:04:49.465Z,1.00
2018-05-08T00:07:17.611Z,1.00
2018-05-08T00:09:45.740Z,1.00
2018-05-08T00:12:14.654Z,1.00
2018-05-08T00:14:42.807Z,1.00
2018-05-08T00:17:10.977Z,1.00
2018-05-08T00:19:39.153Z,1.00
2018-05-08T00:22:08.085Z,1.00
2018-05-08T00:24:36.204Z,1.00
2018-05-08T00:27:05.171Z,1.00
2018-05-08T00:29:33.317Z,1.00
2018-05-08T00:32:01.488Z,1.00
2018-05-08T00:34:29.665Z,1.00
2018-05-08T00:36:57.904Z,1.00
2018-05-08T00:39:26.052Z,1.00
2018-05-08T00:41:54.946Z,1.00
2018-05-08T00:44:23.862Z,1.00
2018-05-08T00:46:52.007Z,1.00
2018-05-08T00:49:20.921Z,2.30
2018-05-08T00:51:49.068Z,2.30
2018-05-08T00:54:17.437Z,3.40
2018-05-08T00:56:45.574Z,4.00
2018-05-08T00:59:13.762Z,5.10
2018-05-08T01:01:41.911Z,5.80
2018-05-08T01:04:10.069Z,7.50
2018-05-08T01:06:38.248Z,9.30
2018-05-08T01:09:06.415Z,11.40
2018-05-08T01:11:34.612Z,11.40
2018-05-08T01:14:02.737Z,11.70
2018-05-08T01:16:31.629Z,12.20
2018-05-08T01:18:59.780Z,12.20
2018-05-08T01:21:27.954Z,12.80
2018-05-08T01:23:56.117Z,14.30
2018-05-08T01:26:24.252Z,15.70
2018-05-08T01:28:52.475Z,16.90
2018-05-08T01:31:21.389Z,19.20
2018-05-08T01:33:49.933Z,19.10
2018-05-08T01:36:18.072Z,21.70
2018-05-08T01:38:46.221Z,22.80
2018-05-08T01:41:14.385Z,24.50
2018-05-08T01:43:43.314Z,29.10
2018-05-08T01:46:11.486Z,29.10
2018-05-08T01:48:39.629Z,30.80
2018-05-08T01:51:08.554Z,33.80
2018-05-08T01:53:36.732Z,33.80
2018-05-08T01:56:04.950Z,35.20
2018-05-08T01:58:33.131Z,39.20
2018-05-08T02:01:02.057Z,45.20
2018-05-08T02:03:30.258Z,45.30
2018-05-08T02:05:58.468Z,53.30
2018-05-08T02:08:27.448Z,63.40
2018-05-08T02:10:56.382Z,67.20
2018-05-08T02:13:24.539Z,67.20
2018-05-08T02:15:52.698Z,69.10
2018-05-08T02:18:21.671Z,74.50
2018-05-08T02:20:49.817Z,74.50
2018-05-08T02:23:17.971Z,76.30
2018-05-08T02:25:46.110Z,77.60
2018-05-08T02:28:14.262Z,79.40
2018-05-08T02:30:43.158Z,81.20
2018-05-08T02:33:12.118Z,82.40
2018-05-08T02:35:40.286Z,82.40
2018-05-08T02:38:08.448Z,83.30
2018-05-08T02:40:36.670Z,84.10
2018-05-08T02:43:06.349Z,87.30
2018-05-08T02:45:34.533Z,88.00
2018-05-08T02:48:02.683Z,88.10
2018-05-08T02:50:30.837Z,88.00
2018-05-08T02:52:58.990Z,90.00
2018-05-08T02:55:27.179Z,90.50
2018-05-08T02:57:55.827Z,90.90
2018-05-08T03:00:24.119Z,90.70
2018-05-08T03:02:52.292Z,90.90
2018-05-08T03:05:20.475Z,91.00
2018-05-08T03:07:48.682Z,92.30
2018-05-08T03:10:16.836Z,92.30
2018-05-08T03:12:44.996Z,92.70
2018-05-08T03:15:13.206Z,93.10
2018-05-08T03:17:41.436Z,92.90
2018-05-08T03:20:09.648Z,93.20
2018-05-08T03:22:37.780Z,93.10
2018-05-08T03:25:05.961Z,93.20
2018-05-08T03:27:34.094Z,92.80
2018-05-08T03:30:02.263Z,93.10
2018-05-08T03:32:30.421Z,93.10
2018-05-08T03:34:58.566Z,93.60
2018-05-08T03:37:26.833Z,94.10
2018-05-08T03:39:54.994Z,94.50
2018-05-08T03:42:23.199Z,94.90
2018-05-08T03:44:51.356Z,94.90
2018-05-08T03:47:19.534Z,95.00
2018-05-08T03:49:47.688Z,95.00
2018-05-08T03:52:15.907Z,95.70
2018-05-08T03:54:44.050Z,95.10
2018-05-08T03:57:12.220Z,95.40
2018-05-08T03:59:40.398Z,95.60
2018-05-08T04:02:26.123Z,95.50
2018-05-08T04:05:11.982Z,95.50
2018-05-08T04:07:57.695Z,95.70
2018-05-08T04:10:25.867Z,95.40
2018-05-08T04:12:54.015Z,95.40
2018-05-08T04:15:22.168Z,95.30
2018-05-08T04:17:50.382Z,95.50
2018-05-08T04:20:18.516Z,95.70
2018-05-08T04:22:46.650Z,95.60
2018-05-08T04:25:15.616Z,95.20
2018-05-08T04:27:43.756Z,95.20
2018-05-08T04:30:11.880Z,94.80
2018-05-08T04:32:40.064Z,95.00
2018-05-08T04:35:08.262Z,94.90
2018-05-08T04:37:36.425Z,95.40
2018-05-08T04:40:04.587Z,94.70
2018-05-08T04:42:32.775Z,94.40
2018-05-08T04:45:00.918Z,93.90
2018-05-08T04:47:29.135Z,93.70
2018-05-08T04:49:57.228Z,93.70
2018-05-08T04:52:25.423Z,93.70
2018-05-08T04:54:53.595Z,93.70
2018-05-08T04:57:21.750Z,93.20
2018-05-08T04:59:49.903Z,92.80
2018-05-08T05:02:18.065Z,92.80
2018-05-08T05:04:46.241Z,92.80
2018-05-08T05:07:14.444Z,92.70
2018-05-08T05:09:42.639Z,92.00
2018-05-08T05:12:11.599Z,89.90
2018-05-08T05:14:39.773Z,89.90
2018-05-08T05:17:07.987Z,89.30
2018-05-08T05:19:36.120Z,90.10
2018-05-08T05:22:04.296Z,89.60
2018-05-08T05:24:32.480Z,89.60
2018-05-08T05:27:00.646Z,89.10
2018-05-08T05:29:28.789Z,87.20
2018-05-08T05:31:56.953Z,85.50
2018-05-08T05:34:25.095Z,81.30
2018-05-08T05:36:53.255Z,80.50
2018-05-08T05:39:21.421Z,79.20
2018-05-08T05:41:49.618Z,75.60
2018-05-08T05:44:17.791Z,73.00
2018-05-08T05:46:46.926Z,65.10
2018-05-08T05:49:15.100Z,65.10
2018-05-08T05:51:43.242Z,60.70
2018-05-08T05:54:11.412Z,54.70
2018-05-08T05:56:40.371Z,46.30
2018-05-08T05:59:08.510Z,45.90
2018-05-08T06:01:36.661Z,42.60
2018-05-08T06:04:04.833Z,40.10
2018-05-08T06:06:33.008Z,32.90
2018-05-08T06:09:01.190Z,29.70
2018-05-08T06:11:29.392Z,23.40
2018-05-08T06:13:57.579Z,17.20
2018-05-08T06:16:25.763Z,13.50
2018-05-08T06:18:53.973Z,11.60
2018-05-08T06:21:22.109Z,8.70
2018-05-08T06:23:50.286Z,6.10
2018-05-08T06:26:18.512Z,1.60
2018-05-08T06:28:46.668Z,1.00
2018-05-08T06:31:14.830Z,1.00
2018-05-08T06:33:43.755Z,1.00
2018-05-08T06:36:11.938Z,1.00
2018-05-08T06:38:40.106Z,1.00
2018-05-08T06:41:08.277Z,1.00
2018-05-08T06:43:36.393Z,1.00
2018-05-08T06:46:04.528Z,1.00
2018-05-08T06:48:32.681Z,1.00
2018-05-08T06:51:02.254Z,1.00
2018-05-08T06:53:31.183Z,1.00
2018-05-08T06:55:59.322Z,1.00
2018-05-08T06:58:28.269Z,1.00
2018-05-08T07:00:56.387Z,1.00
2018-05-08T07:03:24.586Z,1.00
2018-05-08T07:05:52.738Z,1.00
2018-05-08T07:08:21.691Z,1.00
2018-05-08T07:10:49.853Z,1.00
2018-05-08T07:13:17.994Z,1.00
2018-05-08T07:15:46.176Z,1.00
2018-05-08T07:18:15.063Z,1.00
2018-05-08T07:20:43.209Z,1.00
2018-05-08T07:23:11.384Z,1.00
2018-05-08T07:25:39.513Z,1.00
2018-05-08T07:28:07.664Z,1.00
2018-05-08T07:30:35.828Z,1.00
2018-05-08T07:33:03.963Z,1.00
2018-05-08T07:35:32.121Z,1.00
2018-05-08T07:38:01.030Z,1.00
2018-05-08T07:40:29.967Z,1.00
2018-05-08T07:42:58.123Z,1.00
2018-05-08T07:45:26.383Z,1.00
2018-05-08T07:47:54.538Z,1.00
2018-05-08T07:50:23.412Z,1.00
2018-05-08T07:52:52.610Z,1.00
2018-05-08T07:55:21.529Z,1.00
2018-05-08T07:57:49.689Z,1.00
2018-05-08T08:00:17.949Z,1.00
2018-05-08T08:02:46.834Z,1.00
2018-05-08T08:05:15.779Z,1.00
2018-05-08T08:07:43.910Z,1.00
2018-05-08T08:10:12.060Z,1.00
2018-05-08T08:12:40.245Z,1.00
2018-05-08T08:15:09.164Z,1.00
2018-05-08T08:17:37.324Z,1.00
2018-05-08T08:20:05.495Z,1.00
2018-05-08T08:22:34.386Z,1.00
2018-05-08T08:25:03.418Z,1.00
2018-05-08T08:27:31.713Z,1.00
2018-05-08T08:30:00.032Z,1.00
2018-05-08T08:32:28.958Z,1.00
2018-05-08T08:34:57.106Z,1.00
2018-05-08T08:37:25.236Z,1.00
2018-05-08T08:39:53.398Z,1.00
2018-05-08T08:42:21.579Z,1.00
2018-05-08T08:44:49.731Z,1.00
2018-05-08T08:47:18.178Z,1.00
2018-05-08T08:49:46.364Z,1.00
2018-05-08T08:52:14.568Z,1.00
2018-05-08T08:54:42.706Z,1.00
2018-05-08T08:57:10.933Z,1.00
2018-05-08T08:59:39.079Z,1.00
2018-05-08T09:02:07.283Z,1.00
2018-05-08T09:04:35.562Z,1.00
2018-05-08T09:07:03.741Z,1.00
2018-05-08T09:09:32.672Z,1.00
2018-05-08T09:12:00.847Z,1.00
2018-05-08T09:14:29.036Z,1.00
2018-05-08T09:16:57.166Z,1.00
2018-05-08T09:19:26.101Z,1.00
2018-05-08T09:21:54.322Z,1.00
2018-05-08T09:24:22.489Z,1.00
2018-05-08T09:26:51.401Z,1.00
2018-05-08T09:29:19.540Z,1.00
2018-05-08T09:31:47.724Z,1.00
2018-05-08T09:34:15.878Z,1.00
2018-05-08T09:36:44.058Z,1.00
2018-05-08T09:39:12.266Z,1.00
2018-05-08T09:41:40.410Z,1.00
2018-05-08T09:44:09.383Z,1.00
2018-05-08T09:46:37.525Z,1.00
2018-05-08T09:49:05.717Z,1.00
2018-05-08T09:51:34.673Z,1.00
2018-05-08T09:54:02.838Z,1.00
2018-05-08T09:56:31.127Z,1.00
2018-05-08T09:58:59.278Z,1.00
2018-05-08T10:01:27.422Z,1.00
2018-05-08T10:03:55.614Z,1.00
2018-05-08T10:06:24.530Z,1.00
2018-05-08T10:08:52.671Z,1.00
2018-05-08T10:11:21.616Z,1.00
2018-05-08T10:13:49.753Z,1.00
2018-05-08T10:16:18.813Z,1.00
2018-05-08T10:18:46.980Z,1.00
2018-05-08T10:21:15.164Z,1.00
2018-05-08T10:23:43.327Z,1.00
2018-05-08T10:26:12.286Z,1.00
2018-05-08T10:28:40.531Z,1.00
2018-05-08T10:31:08.648Z,1.00
2018-05-08T10:33:36.882Z,1.00
2018-05-08T10:36:05.026Z,1.00
2018-05-08T10:38:33.201Z,1.00
2018-05-08T10:41:01.529Z,1.00
2018-05-08T10:43:29.669Z,1.00
2018-05-08T10:45:57.822Z,1.00
2018-05-08T10:48:26.146Z,1.00
2018-05-08T10:50:54.504Z,1.00
2018-05-08T10:53:22.707Z,1.00
2018-05-08T10:55:50.871Z,1.00
2018-05-08T10:58:19.032Z,1.00
2018-05-08T11:00:47.167Z,1.00
2018-05-08T11:03:16.090Z,1.00
2018-05-08T11:05:44.272Z,1.00
2018-05-08T11:08:12.407Z,1.00
2018-05-08T11:10:41.329Z,1.00
2018-05-08T11:13:09.495Z,1.00
2018-05-08T11:15:37.634Z,1.00
2018-05-08T11:18:05.772Z,1.00
2018-05-08T11:20:33.946Z,1.00
2018-05-08T11:23:02.218Z,1.00
2018-05-08T11:25:30.541Z,1.00
2018-05-08T11:27:59.297Z,1.00
2018-05-08T11:30:27.563Z,1.00
2018-05-08T11:32:55.797Z,1.00
2018-05-08T11:35:23.985Z,1.00
2018-05-08T11:37:52.128Z,1.00
2018-05-08T11:40:20.299Z,1.00
2018-05-08T11:42:48.467Z,1.00
2018-05-08T11:45:17.418Z,1.00
2018-05-08T11:47:45.650Z,1.00
2018-05-08T11:50:13.787Z,1.00
2018-05-08T11:52:41.939Z,1.00
2018-05-08T11:55:10.186Z,1.00
2018-05-08T11:57:38.368Z,1.00
2018-05-08T12:00:06.677Z,1.00
2018-05-08T12:02:34.860Z,1.00
2018-05-08T12:05:03.067Z,1.00
2018-05-08T12:07:31.215Z,1.00
2018-05-08T12:09:59.482Z,1.00
2018-05-08T12:12:27.740Z,1.00
2018-05-08T12:14:55.975Z,1.00
2018-05-08T12:17:24.087Z,1.00
2018-05-08T12:19:52.243Z,1.00
2018-05-08T12:22:20.534Z,1.00
2018-05-08T12:24:48.676Z,1.00
2018-05-08T12:27:16.983Z,1.00
2018-05-08T12:29:45.175Z,1.00
2018-05-08T12:32:13.370Z,1.00
2018-05-08T12:34:42.466Z,1.00
2018-05-08T12:37:10.622Z,1.00
2018-05-08T12:39:39.669Z,1.00
2018-05-08T12:42:07.837Z,1.00
2018-05-08T12:44:36.003Z,1.00
2018-05-08T12:47:04.221Z,1.00
2018-05-08T12:49:32.426Z,1.00
2018-05-08T12:52:00.741Z,1.00
2018-05-08T12:54:29.022Z,1.00
2018-05-08T12:56:57.185Z,1.00
2018-05-08T12:59:25.438Z,1.00
2018-05-08T13:01:53.644Z,1.00
2018-05-08T13:04:21.883Z,1.00
2018-05-08T13:06:50.169Z,1.00
2018-05-08T13:09:18.332Z,1.00
2018-05-08T13:11:46.530Z,1.00
2018-05-08T13:14:15.344Z,1.00
2018-05-08T13:16:43.593Z,1.00
2018-05-08T13:19:11.737Z,1.00
2018-05-08T13:21:39.885Z,1.00
2018-05-08T13:24:08.097Z,1.00
2018-05-08T13:26:36.229Z,1.00
2018-05-08T13:29:04.363Z,1.00
2018-05-08T13:31:32.719Z,1.00
2018-05-08T13:34:00.862Z,1.00
2018-05-08T13:36:29.138Z,1.00
2018-05-08T13:38:57.439Z,1.00
2018-05-08T13:41:25.596Z,1.00
2018-05-08T13:43:53.742Z,1.00
2018-05-08T13:46:21.979Z,1.00
2018-05-08T13:48:50.134Z,1.00
2018-05-08T13:51:18.349Z,1.00
2018-05-08T13:53:46.569Z,1.00
2018-05-08T13:56:14.733Z,1.00
2018-05-08T13:58:42.996Z,1.00
2018-05-08T14:01:11.902Z,1.00
2018-05-08T14:03:40.847Z,1.00
2018-05-08T14:06:08.998Z,1.00
2018-05-08T14:08:37.219Z,1.00
2018-05-08T14:11:05.470Z,1.00
2018-05-08T14:13:33.624Z,1.00
2018-05-08T14:16:01.830Z,1.00
2018-05-08T14:18:30.163Z,1.00
2018-05-08T14:20:58.353Z,1.00
2018-05-08T14:23:26.540Z,1.00
2018-05-08T14:25:54.723Z,1.00
2018-05-08T14:28:22.883Z,1.00
2018-05-08T14:30:51.015Z,1.00
2018-05-08T14:33:19.173Z,1.00
2018-05-08T14:35:48.126Z,1.00
2018-05-08T14:38:16.255Z,1.00
2018-05-08T14:40:44.395Z,1.00
2018-05-08T14:43:13.319Z,1.00
2018-05-08T14:45:41.472Z,1.00
2018-05-08T14:48:09.621Z,1.00
2018-05-08T14:50:37.911Z,1.00
2018-05-08T14:53:06.097Z,1.00
2018-05-08T14:55:34.338Z,1.00
2018-05-08T14:58:02.478Z,1.00
2018-05-08T15:00:30.669Z,1.00
2018-05-08T15:02:58.800Z,1.00
2018-05-08T15:05:26.957Z,1.00
2018-05-08T15:07:55.111Z,1.00
2018-05-08T15:10:23.307Z,1.00
2018-05-08T15:12:51.596Z,1.00
2018-05-08T15:15:19.758Z,1.00
2018-05-08T15:17:48.197Z,1.00
2018-05-08T15:20:16.317Z,1.00
2018-05-08T15:22:44.480Z,1.00
2018-05-08T15:25:12.623Z,1.00
2018-05-08T15:27:40.823Z,1.00
2018-05-08T15:30:09.967Z,1.00
2018-05-08T15:32:39.165Z,1.00
2018-05-08T15:35:07.339Z,1.00
2018-05-08T15:37:35.473Z,1.00
2018-05-08T15:40:03.606Z,1.00
2018-05-08T15:42:31.779Z,1.00
2018-05-08T15:44:59.913Z,1.00
2018-05-08T15:47:28.061Z,1.00
2018-05-08T15:49:56.201Z,1.00
2018-05-08T15:52:24.376Z,1.00
2018-05-08T15:54:53.280Z,1.00
2018-05-08T15:57:22.245Z,1.00
2018-05-08T15:59:50.377Z,1.00
2018-05-08T16:02:18.568Z,1.00
2018-05-08T16:04:46.760Z,1.00
2018-05-08T16:07:14.966Z,1.00
2018-05-08T16:09:43.153Z,1.00
2018-05-08T16:12:11.314Z,1.00
2018-05-08T16:14:40.229Z,1.00
2018-05-08T16:17:08.400Z,1.00
2018-05-08T16:19:36.544Z,1.00
2018-05-08T16:22:05.463Z,1.00
2018-05-08T16:24:33.655Z,1.00
2018-05-08T16:27:01.832Z,1.00
2018-05-08T16:29:29.967Z,1.00
2018-05-08T16:31:58.137Z,1.00
2018-05-08T16:34:26.263Z,1.00
2018-05-08T16:36:54.415Z,1.00
2018-05-08T16:39:22.794Z,1.00
2018-05-08T16:41:51.642Z,1.00
2018-05-08T16:44:20.567Z,1.00
2018-05-08T16:46:48.799Z,1.00
2018-05-08T16:49:17.695Z,1.00
2018-05-08T16:51:45.833Z,1.00
2018-05-08T16:54:13.974Z,1.00
2018-05-08T16:56:42.101Z,1.00
2018-05-08T16:59:10.272Z,1.00
2018-05-08T17:01:39.210Z,1.00
2018-05-08T17:04:07.404Z,1.00
2018-05-08T17:06:35.570Z,1.00
2018-05-08T17:09:03.728Z,1.00
2018-05-08T17:11:31.921Z,1.00
2018-05-08T17:14:00.173Z,1.00
2018-05-08T17:16:28.361Z,1.00
2018-05-08T17:18:56.739Z,1.00
2018-05-08T17:21:24.920Z,1.00
2018-05-08T17:23:53.086Z,1.00
2018-05-08T17:26:21.232Z,1.00
2018-05-08T17:28:49.425Z,1.00
2018-05-08T17:31:17.650Z,1.00
2018-05-08T17:33:46.562Z,1.00
2018-05-08T17:36:14.730Z,1.00
2018-05-08T17:38:42.877Z,1.00
2018-05-08T17:41:11.790Z,1.00
2018-05-08T17:43:39.922Z,1.00
2018-05-08T17:46:08.072Z,1.00
2018-05-08T17:48:36.249Z,1.00
2018-05-08T17:51:06.014Z,1.00
2018-05-08T17:53:34.937Z,1.00
2018-05-08T17:56:03.282Z,1.00
2018-05-08T17:58:31.466Z,1.00
2018-05-08T18:00:59.628Z,1.00
2018-05-08T18:03:27.908Z,1.00
2018-05-08T18:05:56.095Z,1.00
2018-05-08T18:08:24.268Z,1.00
2018-05-08T18:10:52.420Z,1.00
2018-05-08T18:13:21.433Z,1.00
2018-05-08T18:15:49.573Z,1.00
2018-05-08T18:18:18.510Z,1.00
2018-05-08T18:20:46.674Z,1.00
2018-05-08T18:23:14.813Z,1.00
2018-05-08T18:25:43.839Z,1.00
2018-05-08T18:28:11.933Z,1.00
2018-05-08T18:30:40.107Z,1.00
2018-05-08T18:33:08.304Z,1.00
2018-05-08T18:35:36.519Z,1.00
2018-05-08T18:38:04.656Z,1.00
2018-05-08T18:40:32.818Z,1.00
2018-05-08T18:43:00.980Z,1.00
2018-05-08T18:45:29.121Z,1.00
2018-05-08T18:47:57.250Z,1.00
2018-05-08T18:50:26.175Z,1.00
2018-05-08T18:52:54.349Z,1.00
2018-05-08T18:55:22.507Z,1.00
2018-05-08T18:57:51.399Z,1.00
2018-05-08T19:00:21.447Z,1.00
2018-05-08T19:02:49.512Z,1.00
2018-05-08T19:05:17.697Z,1.00
2018-05-08T19:07:45.879Z,1.00
2018-05-08T19:10:14.071Z,1.00
2018-05-08T19:12:42.355Z,1.00
2018-05-08T19:15:16.882Z,1.00
2018-05-08T19:17:45.900Z,1.00
2018-05-08T19:20:14.123Z,1.00
2018-05-08T19:22:42.287Z,1.00
2018-05-08T19:25:10.431Z,1.00
2018-05-08T19:27:38.577Z,1.00
2018-05-08T19:30:12.117Z,1.00
2018-05-08T19:32:40.303Z,1.00
2018-05-08T19:35:13.928Z,1.00
2018-05-08T19:37:47.595Z,1.00
2018-05-08T19:40:16.585Z,1.00
2018-05-08T19:42:44.729Z,1.00
2018-05-08T19:45:12.880Z,1.00
2018-05-08T19:47:41.787Z,1.00
2018-05-08T19:50:09.960Z,1.00
2018-05-08T19:52:38.148Z,1.00
2018-05-08T19:55:06.315Z,1.00
2018-05-08T19:57:35.214Z,1.00
2018-05-08T20:00:03.364Z,1.00
2018-05-08T20:02:32.286Z,1.00
2018-05-08T20:05:01.027Z,1.00
2018-05-08T20:07:29.211Z,1.00
2018-05-08T20:09:57.562Z,1.00
2018-05-08T20:12:25.749Z,1.00
2018-05-08T20:14:54.741Z,1.00
2018-05-08T20:17:23.765Z,1.00
2018-05-08T20:19:51.928Z,1.00
2018-05-08T20:22:20.916Z,1.00
2018-05-08T20:24:49.053Z,1.00
2018-05-08T20:27:17.236Z,1.00
2018-05-08T20:29:45.371Z,1.00
2018-05-08T20:32:13.566Z,1.00
2018-05-08T20:34:41.751Z,1.00
2018-05-08T20:37:09.910Z,1.00
2018-05-08T20:39:38.072Z,1.00
2018-05-08T20:42:06.228Z,1.00
2018-05-08T20:44:34.388Z,1.00
2018-05-08T20:47:02.560Z,1.00
2018-05-08T20:49:30.761Z,1.00
2018-05-08T20:51:58.941Z,1.00
2018-05-08T20:54:27.856Z,1.00
2018-05-08T20:56:56.046Z,1.00
2018-05-08T20:59:24.182Z,1.00
2018-05-08T21:01:52.341Z,1.00
2018-05-08T21:04:20.470Z,1.00
2018-05-08T21:06:48.640Z,1.00
2018-05-08T21:09:17.572Z,1.00
2018-05-08T21:11:45.710Z,1.00
2018-05-08T21:14:13.867Z,1.00
2018-05-08T21:16:42.815Z,1.00
2018-05-08T21:19:11.019Z,1.00
2018-05-08T21:21:39.160Z,1.00
2018-05-08T21:24:07.316Z,1.00
2018-05-08T21:26:35.835Z,1.00
2018-05-08T21:29:04.011Z,1.00
2018-05-08T21:31:32.227Z,1.00
2018-05-08T21:34:00.360Z,1.00
2018-05-08T21:36:28.491Z,1.00
2018-05-08T21:38:56.638Z,1.00
2018-05-08T21:41:24.783Z,1.00
2018-05-08T21:43:52.946Z,1.00
2018-05-08T21:46:21.063Z,1.00
2018-05-08T21:48:49.178Z,1.00
2018-05-08T21:51:17.330Z,1.00
2018-05-08T21:53:45.494Z,1.00
2018-05-08T21:56:13.670Z,1.00
2018-05-08T21:58:41.862Z,1.00
2018-05-08T22:01:10.555Z,1.00
2018-05-08T22:03:38.711Z,1.00
2018-05-08T22:06:06.900Z,1.00
2018-05-08T22:08:35.055Z,1.00
2018-05-08T22:11:03.270Z,1.00
2018-05-08T22:13:32.161Z,1.00
2018-05-08T22:16:00.306Z,1.00
2018-05-08T22:18:28.437Z,1.00
2018-05-08T22:20:56.583Z,1.00
2018-05-08T22:23:24.706Z,1.00
2018-05-08T22:25:52.836Z,1.00
2018-05-08T22:28:20.979Z,1.00
2018-05-08T22:30:49.141Z,1.00
2018-05-08T22:33:17.276Z,1.00
2018-05-08T22:35:45.502Z,1.00
2018-05-08T22:38:13.646Z,1.00
2018-05-08T22:40:41.758Z,1.00
2018-05-08T22:43:10.676Z,1.00
2018-05-08T22:45:38.817Z,1.00
2018-05-08T22:48:07.744Z,1.00
2018-05-08T22:50:35.900Z,1.00
2018-05-08T22:53:04.033Z,1.00
2018-05-08T22:55:32.177Z,1.00
2018-05-08T22:58:00.297Z,1.00
2018-05-08T23:00:28.486Z,1.00
2018-05-08T23:02:57.381Z,1.00
2018-05-08T23:05:25.521Z,1.00
2018-05-08T23:07:53.675Z,1.00
2018-05-08T23:10:21.875Z,1.00
2018-05-08T23:12:50.010Z,1.00
2018-05-08T23:15:18.149Z,1.00
2018-05-08T23:17:46.268Z,1.00
2018-05-08T23:20:14.396Z,1.00
2018-05-08T23:22:42.518Z,1.00
2018-05-08T23:25:10.689Z,1.00
2018-05-08T23:27:38.824Z,1.00
2018-05-08T23:30:06.986Z,1.00
2018-05-08T23:32:35.129Z,1.00
2018-05-08T23:35:03.271Z,1.00
2018-05-08T23:37:31.416Z,1.00
2018-05-08T23:39:59.627Z,1.00
2018-05-08T23:42:28.038Z,1.00
2018-05-08T23:44:56.946Z,1.00
2018-05-08T23:47:25.085Z,1.00
2018-05-08T23:49:53.992Z,1.00
2018-05-08T23:52:22.921Z,1.00
2018-05-08T23:54:51.051Z,1.00
2018-05-08T23:57:19.201Z,1.00
2018-05-08T23:59:47.355Z,1.00
